Detall de PIREP

Printer-friendly versionPDF version

[2012/04/06 13:50:00]
Flight IATA:CT1004
Pilot Number:037
Company ICAO:CAT
Aircraft Type:B752/E
PAX:93
Departing Airport: LROP
Destination Airport: LEBL
Alternate Airport:LEPA
Online: VATSIM
Route:TUSET L5 LAMIT UL5 ALG UM601 VERSO

Flight Level:F380
No Slew and time accel
No pause
Crash detect
Detect pilot in Cockpit between each 30 and 45 minutes
13:50 Zero fuel Weight: 158447 Lbs, Fuel Weight: 32918 Lbs
13:50 VATSIM:LROP 061330Z 07008KT 9999 SCT024 FEW025TCU BKN030 17/12 Q1002 880///95 TEMPO 5000 SHRA SCT030CB
13:50 VATSIM:LEBL 061330Z 19008KT 150V220 9999 SCT020 18/13 Q1007 NOSIG
13:58 Parking Brakes off
14:05 Take-off
14:05 Take off Weight: 190322 Lbs
14:05 Wind: 112º @ 005 Knots Heading: 083º
14:05 POS N44º 33´ 58´´ E026º 05´ 48´´
14:05 Gear Up: 188 Knots
14:05 Flaps:2 at 189 Knots
14:05 Flaps:1 at 217 Knots
14:05 Flaps:0 at 221 Knots
14:20 Wind:122º@007Knots Heading: 290º Ground Speed: 460 Knots Altitude 36879 ft
14:21 TOC
14:21 Fuel Weight: 27830 Lb
14:35 Wind:249º@022 Knots Heading: 255º Ground Speed: 442 Knots Altitude 37736 ft
14:50 Wind:264º@026 Knots Heading: 249º Ground Speed: 437 Knots Altitude 37746 ft
15:05 Wind:227º@021 Knots Heading: 253º Ground Speed: 444 Knots Altitude 37821 ft
15:20 Wind:198º@010 Knots Heading: 264º Ground Speed: 457 Knots Altitude 37857 ft
15:35 Wind:205º@030 Knots Heading: 238º Ground Speed: 439 Knots Altitude 37903 ft
15:50 Wind:260º@014 Knots Heading: 249º Ground Speed: 447 Knots Altitude 37883 ft
16:05 Wind:200º@039 Knots Heading: 244º Ground Speed: 435 Knots Altitude 37906 ft
16:20 Wind:225º@017 Knots Heading: 277º Ground Speed: 450 Knots Altitude 37854 ft
16:29 TOD
16:29 Fuel Weight: 13675 Lb
16:35 Wind:231º@011 Knots Heading: 276º Ground Speed: 375 Knots Altitude 16482 ft
16:46 Flaps:1 at 210 Knots
16:48 Flaps:2 at 192 Knots
16:48 Gear Down: 179 Knots
16:48 Flaps:3 at 175 Knots
16:49 Flaps:4 at 158 Knots
16:50 Wind:332º@012 Knots Heading: 249º Ground Speed: 150 Knots Altitude 1220 ft
16:50 Flaps:5 at 150 Knots
16:50 Flaps:6 at 144 Knots
16:51 TouchDown:Rate -209 ft/min Speed: 126 Knots
16:52 VATSIM:LEBL 061630Z 33013KT 9999 FEW012 SCT020 14/08 Q1007 NOSIG
16:52 Land
16:52 Wind:330º@013 Knots
16:52 Heading: 245º
16:52 Flight Duration: 02:47
16:52 Landing Weight: 170525 Lbs
16:52 POS N41º 17´ 55´´ E002º 04´ 59´´
16:56 Parking brakes on
16:56 Block to Block Duration: 02:58
16:56 Final Fuel: 11677 Lbls
16:56 Spent Fuel: 21241 Lbls
16:56 Flight Length: 940 NM
16:56 TOD Land Length: 103 NM

Exportar CSV

Powered by Drupal - Modified by Danger4k